Time;durP1;ratioP1;P1;durP2;ratioP2;P2;SDS_P1;SDS_P2;PMS_P1;PMS_P2;Temp;Humidity;BMP_temperature;BMP_pressure;BME280_temperature;BME280_humidity;BME280_pressure;Samples;Min_cycle;Max_cycle;Signal;HPM_P1;HPM_P2
2021/04/01 12:58:30;;;;;;;8.60;2.88;;;32.60;43.30;;;;;;5125084;27;20639;-72
2021/04/01 13:01:05;;;;;;;6.50;2.40;;;31.70;43.10;;;;;;5125015;28;20019;-73
2021/04/01 13:03:31;;;;;;;5.93;2.70;;;32.10;42.20;;;;;;5124367;28;20016;-73
2021/04/01 13:06:04;;;;;;;5.50;2.60;;;32.00;41.60;;;;;;5124607;28;20027;-72
2021/04/01 13:11:02;;;;;;;5.78;2.60;;;31.60;40.90;;;;;;5107181;28;20034;-72
2021/04/01 13:13:27;;;;;;;6.57;3.05;;;30.70;40.80;;;;;;5123251;27;20069;-72
2021/04/01 13:15:53;;;;;;;7.65;2.88;;;30.30;42.40;;;;;;5123647;27;20039;-72
2021/04/01 13:18:19;;;;;;;10.65;3.45;;;30.00;41.70;;;;;;5107857;28;20346;-74
2021/04/01 13:20:45;;;;;;;14.43;3.65;;;29.40;42.30;;;;;;5125481;27;20573;-73
2021/04/01 13:23:23;;;;;;;8.70;3.22;;;28.70;43.10;;;;;;5123902;28;20567;-72
2021/04/01 13:25:49;;;;;;;11.82;3.15;;;28.80;43.20;;;;;;5124609;27;20490;-73
2021/04/01 13:28:15;;;;;;;6.30;3.10;;;28.70;43.20;;;;;;5125145;27;20020;-73
2021/04/01 13:30:46;;;;;;;6.32;3.95;;;28.60;43.80;;;;;;5124879;27;20027;-73
2021/04/01 13:35:46;;;;;;;11.90;6.38;;;28.30;44.40;;;;;;5124893;27;20510;-73
2021/04/01 13:38:21;;;;;;;15.25;6.55;;;28.50;44.70;;;;;;5118071;28;20024;-72
2021/04/01 13:40:49;;;;;;;12.20;6.07;;;28.90;44.80;;;;;;5104496;28;20085;-72
2021/04/01 13:43:17;;;;;;;10.63;5.20;;;29.90;43.80;;;;;;5106737;28;20032;-72
2021/04/01 13:45:43;;;;;;;10.43;6.38;;;30.60;43.90;;;;;;5123989;27;20114;-74
2021/04/01 13:48:19;;;;;;;14.10;8.57;;;31.30;43.20;;;;;;5077468;28;20118;-73
2021/04/01 13:50:53;;;;;;;19.83;10.82;;;31.60;42.10;;;;;;5123251;28;20036;-72
2021/04/01 13:53:41;;;;;;;18.27;10.45;;;31.90;41.30;;;;;;5105150;28;20038;-71
2021/04/01 13:56:17;;;;;;;19.05;9.85;;;31.50;41.80;;;;;;5132870;27;20111;-73
2021/04/01 13:59:38;;;;;;;18.50;10.00;;;32.00;41.20;;;;;;5135789;27;20033;-72
2021/04/01 14:09:50;;;;;;;18.55;11.32;;;34.30;39.50;;;;;;5110106;28;20054;-72
2021/04/01 14:12:20;;;;;;;21.30;10.15;;;34.00;38.90;;;;;;5110211;28;20038;-72
2021/04/01 14:14:46;;;;;;;13.52;8.10;;;34.20;39.30;;;;;;5094272;28;20115;-71
2021/04/01 14:17:13;;;;;;;13.98;8.18;;;33.90;39.60;;;;;;5089672;28;20115;-71
2021/04/01 14:19:41;;;;;;;12.80;8.10;;;32.50;38.60;;;;;;5090047;28;20566;-71
2021/04/01 14:22:07;;;;;;;16.00;8.20;;;32.60;40.70;;;;;;5089287;28;20136;-70
2021/04/01 14:29:33;;;;;;;18.83;9.18;;;31.10;41.40;;;;;;5090094;28;20117;-71
2021/04/01 14:31:59;;;;;;;11.85;7.72;;;31.60;40.50;;;;;;5089049;28;20107;-71
2021/04/01 14:34:27;;;;;;;16.15;8.02;;;32.40;40.50;;;;;;5088973;28;20028;-71
2021/04/01 14:36:56;;;;;;;18.60;10.70;;;32.90;40.80;;;;;;5088800;28;20435;-71
2021/04/01 14:39:26;;;;;;;20.67;11.38;;;33.80;39.60;;;;;;5088818;28;20043;-71
2021/04/01 14:42:07;;;;;;;19.67;12.05;;;34.10;38.20;;;;;;5088611;28;20034;-71
2021/04/01 14:44:34;;;;;;;22.90;12.52;;;34.40;37.90;;;;;;5102387;28;20016;-72
2021/04/01 14:47:00;;;;;;;22.45;14.63;;;34.10;38.70;;;;;;5108212;28;20015;-71
2021/04/01 14:49:26;;;;;;;19.08;12.13;;;33.30;38.70;;;;;;5109397;28;20043;-71
2021/04/01 14:51:52;;;;;;;20.17;13.23;;;33.00;39.70;;;;;;5106877;28;20043;-72
2021/04/01 14:54:20;;;;;;;22.63;14.57;;;33.10;40.20;;;;;;5109329;28;20035;-72
2021/04/01 14:56:50;;;;;;;24.65;15.05;;;32.60;40.30;;;;;;5109943;28;20489;-71
2021/04/01 14:59:22;;;;;;;26.95;15.10;;;32.40;40.30;;;;;;5104284;28;20604;-71
2021/04/01 15:01:49;;;;;;;28.55;15.35;;;31.70;40.20;;;;;;5088641;28;20576;-71
2021/04/01 15:04:16;;;;;;;22.15;14.35;;;31.40;40.60;;;;;;5086611;28;20488;-72
2021/04/01 15:06:47;;;;;;;28.55;15.57;;;31.80;40.50;;;;;;5091923;28;20031;-71
2021/04/01 15:09:16;;;;;;;25.38;15.40;;;32.20;39.70;;;;;;5097305;28;20012;-72
2021/04/01 15:11:43;;;;;;;34.60;18.73;;;32.10;40.50;;;;;;5096600;28;20048;-71
2021/04/01 15:14:10;;;;;;;34.80;18.20;;;31.50;40.70;;;;;;5102006;28;20036;-72
2021/04/01 15:16:39;;;;;;;28.15;18.25;;;31.20;40.80;;;;;;5098704;28;20023;-72
2021/04/01 15:19:06;;;;;;;32.75;19.55;;;31.30;40.90;;;;;;5102077;28;20020;-72
2021/04/01 15:21:32;;;;;;;32.85;19.02;;;30.90;41.00;;;;;;5095785;28;20020;-72
2021/04/01 15:23:58;;;;;;;28.60;18.20;;;31.60;40.50;;;;;;5098325;28;20479;-72
2021/04/01 15:26:24;;;;;;;34.17;17.45;;;31.50;40.40;;;;;;5094298;28;20045;-72
2021/04/01 15:28:50;;;;;;;31.60;17.48;;;31.20;41.70;;;;;;5096765;28;20035;-72
2021/04/01 15:31:16;;;;;;;29.08;17.02;;;31.40;41.70;;;;;;5098255;28;20735;-71
2021/04/01 15:33:42;;;;;;;30.73;17.20;;;31.80;41.40;;;;;;5098569;28;20043;-72
2021/04/01 15:36:08;;;;;;;29.23;17.70;;;32.40;40.70;;;;;;5101407;28;20036;-72
2021/04/01 15:38:33;;;;;;;28.02;17.88;;;32.50;40.20;;;;;;5091185;28;20031;-72
2021/04/01 15:40:59;;;;;;;32.17;18.17;;;32.90;39.50;;;;;;5093443;28;20023;-73
2021/04/01 15:43:26;;;;;;;29.88;17.08;;;32.80;39.90;;;;;;5094685;28;20028;-72
2021/04/01 15:45:53;;;;;;;32.53;17.55;;;32.70;40.20;;;;;;5098562;28;20066;-72
2021/04/01 15:48:18;;;;;;;34.70;18.00;;;32.90;39.40;;;;;;5097793;28;20583;-72
2021/04/01 15:50:44;;;;;;;33.85;17.98;;;32.70;39.30;;;;;;5097621;28;20112;-72
2021/04/01 15:53:11;;;;;;;32.08;18.65;;;32.30;39.40;;;;;;5096074;28;20526;-74
2021/04/01 15:55:36;;;;;;;33.78;19.42;;;31.90;39.70;;;;;;5094690;28;20063;-73
2021/04/01 15:58:02;;;;;;;33.45;18.15;;;31.80;40.20;;;;;;5096972;28;20097;-72
2021/04/01 16:00:28;;;;;;;28.35;17.98;;;32.10;40.10;;;;;;5101231;28;20030;-72
2021/04/01 16:02:54;;;;;;;27.98;17.75;;;32.80;39.90;;;;;;5093973;28;20020;-72
2021/04/01 16:05:20;;;;;;;29.08;17.20;;;33.10;39.20;;;;;;5096442;28;20360;-74
2021/04/01 16:07:46;;;;;;;28.95;15.95;;;33.20;39.20;;;;;;5095243;28;20035;-72
2021/04/01 16:10:12;;;;;;;29.05;14.18;;;32.20;38.80;;;;;;5098326;28;20100;-72
2021/04/01 16:12:38;;;;;;;27.00;14.90;;;31.70;39.30;;;;;;5100436;28;20030;-72
2021/04/01 16:15:07;;;;;;;24.05;13.75;;;31.40;39.60;;;;;;5098268;28;20024;-72
2021/04/01 16:17:33;;;;;;;24.08;13.35;;;31.10;40.20;;;;;;5094749;27;20052;-70
2021/04/01 16:19:59;;;;;;;29.67;13.18;;;31.10;40.30;;;;;;5096227;28;20051;-72
2021/04/01 16:22:24;;;;;;;25.35;13.88;;;31.10;39.50;;;;;;5085441;28;20032;-72
2021/04/01 16:24:50;;;;;;;31.08;14.02;;;31.00;39.40;;;;;;5105831;28;20097;-73
2021/04/01 16:27:16;;;;;;;21.15;11.38;;;30.80;39.00;;;;;;5106675;28;20034;-72
2021/04/01 16:29:42;;;;;;;29.13;10.75;;;30.60;38.80;;;;;;5106923;28;20391;-73
2021/04/01 16:32:08;;;;;;;20.95;10.23;;;30.30;38.80;;;;;;5103925;28;20042;-73
2021/04/01 16:34:35;;;;;;;15.13;9.00;;;30.60;38.30;;;;;;5095223;28;20090;-72
2021/04/01 16:37:01;;;;;;;14.23;7.97;;;30.70;38.70;;;;;;5099382;28;20068;-72
2021/04/01 16:39:29;;;;;;;20.95;8.20;;;30.50;38.40;;;;;;5095586;28;20026;-72
2021/04/01 16:41:56;;;;;;;16.73;7.38;;;30.50;38.30;;;;;;5097782;28;20051;-72
2021/04/01 16:44:23;;;;;;;14.88;7.65;;;30.10;38.00;;;;;;5094831;28;20032;-72
2021/04/01 16:46:49;;;;;;;13.77;7.13;;;29.80;38.60;;;;;;5099614;28;20081;-72
2021/04/01 16:49:15;;;;;;;20.73;8.18;;;29.50;38.80;;;;;;5095519;28;20028;-72
2021/04/01 16:51:43;;;;;;;14.73;7.22;;;29.70;38.50;;;;;;5096460;28;20430;-73
2021/04/01 16:54:17;;;;;;;16.15;7.43;;;29.30;38.90;;;;;;5102888;28;20139;-72
2021/04/01 16:56:49;;;;;;;13.32;7.30;;;29.20;39.00;;;;;;5113124;28;20094;-72
2021/04/01 16:59:16;;;;;;;16.75;7.40;;;28.70;40.00;;;;;;5119738;28;20104;-72
2021/04/01 17:01:42;;;;;;;17.83;8.15;;;28.60;40.50;;;;;;5121333;28;20031;-72
2021/04/01 17:04:08;;;;;;;14.43;7.43;;;28.10;40.00;;;;;;5113783;28;20065;-74
2021/04/01 17:06:34;;;;;;;18.88;8.57;;;27.90;40.20;;;;;;5098031;28;20024;-74
2021/04/01 17:08:59;;;;;;;17.63;8.02;;;27.60;40.70;;;;;;5111980;28;20031;-75
2021/04/01 17:11:25;;;;;;;15.63;7.95;;;27.10;41.20;;;;;;5112235;28;20062;-74
2021/04/01 17:13:53;;;;;;;16.50;8.07;;;26.90;41.70;;;;;;5112301;28;20039;-72
2021/04/01 17:16:18;;;;;;;18.40;8.35;;;26.50;42.10;;;;;;5111130;28;20051;-73
2021/04/01 17:18:44;;;;;;;22.08;8.57;;;26.30;42.30;;;;;;5113182;28;20340;-72
2021/04/01 17:21:10;;;;;;;22.60;9.35;;;25.90;42.80;;;;;;5106680;28;20455;-73
2021/04/01 17:23:35;;;;;;;21.02;7.80;;;25.50;42.90;;;;;;5091959;28;20055;-74
2021/04/01 17:26:01;;;;;;;16.10;7.13;;;25.10;42.90;;;;;;5086138;28;20032;-74
2021/04/01 17:28:27;;;;;;;17.85;6.38;;;24.80;43.40;;;;;;5070888;28;20039;-72
2021/04/01 17:30:53;;;;;;;14.35;5.70;;;24.60;43.30;;;;;;5107624;28;20028;-75
2021/04/01 17:33:19;;;;;;;12.00;5.18;;;24.20;44.20;;;;;;5105200;28;20099;-73
2021/04/01 17:35:44;;;;;;;8.98;4.68;;;23.90;44.50;;;;;;5105614;28;20024;-72
2021/04/01 17:38:10;;;;;;;14.48;5.30;;;23.60;44.90;;;;;;5102133;28;20121;-73
2021/04/01 17:40:37;;;;;;;10.85;4.93;;;23.20;45.70;;;;;;5084823;28;20337;-73
2021/04/01 17:43:04;;;;;;;13.55;5.70;;;23.00;45.90;;;;;;5085893;28;20024;-74
2021/04/01 17:45:30;;;;;;;12.25;4.22;;;22.60;46.80;;;;;;5090528;28;20023;-73
2021/04/01 17:47:59;;;;;;;14.00;4.53;;;22.50;47.00;;;;;;5091821;28;20024;-73
2021/04/01 17:50:25;;;;;;;11.57;4.30;;;22.20;47.10;;;;;;5092098;28;20388;-74
2021/04/01 17:52:51;;;;;;;13.93;6.10;;;21.90;48.10;;;;;;5093149;28;20038;-73
2021/04/01 17:55:20;;;;;;;9.07;4.57;;;21.70;48.50;;;;;;5111359;28;20110;-73
2021/04/01 17:57:50;;;;;;;14.48;5.15;;;21.50;48.60;;;;;;5113656;28;20130;-74
2021/04/01 18:00:20;;;;;;;10.35;4.03;;;21.40;49.00;;;;;;5114402;28;20098;-73
2021/04/01 18:02:50;;;;;;;16.75;4.13;;;21.00;49.40;;;;;;5113889;28;20020;-74
2021/04/01 18:24:08;;;;;;;13.77;3.70;;;19.80;51.10;;;;;;5111340;28;20046;-75
2021/04/01 18:26:47;;;;;;;11.07;4.53;;;19.90;51.30;;;;;;5106046;28;20016;-72
2021/04/01 18:29:21;;;;;;;13.20;3.38;;;19.80;51.60;;;;;;5107726;28;20050;-72
2021/04/01 18:32:03;;;;;;;10.98;3.28;;;20.00;52.00;;;;;;5105156;28;20017;-72
2021/04/01 18:34:35;;;;;;;16.60;3.40;;;19.50;52.50;;;;;;5101738;28;20034;-70
2021/04/01 18:39:55;;;;;;;13.60;3.60;;;19.30;52.70;;;;;;5101763;28;20022;-72
2021/04/01 18:42:25;;;;;;;20.35;4.95;;;19.20;52.80;;;;;;5099122;28;20024;-74
2021/04/01 18:44:57;;;;;;;14.63;5.13;;;19.00;53.80;;;;;;5102555;28;20027;-76
2021/04/01 18:50:00;;;;;;;13.40;3.63;;;18.80;53.50;;;;;;5103061;28;20040;-73
2021/04/01 18:52:28;;;;;;;20.65;5.05;;;18.60;55.10;;;;;;5108083;28;20040;-74
